sensor_id;sensor_type;location;lat;lon;timestamp;pressure;altitude;pressure_sealevel;temperature;humidity
70434;BME280;57876;47.792;12.960;2023-07-13T00:00:03;96812.69;;;18.48;61.89
70434;BME280;57876;47.792;12.960;2023-07-13T00:02:33;96803.53;;;18.44;61.71
70434;BME280;57876;47.792;12.960;2023-07-13T00:04:57;96806.94;;;18.41;61.80
70434;BME280;57876;47.792;12.960;2023-07-13T00:07:22;96813.03;;;18.47;61.94
70434;BME280;57876;47.792;12.960;2023-07-13T00:09:48;96803.41;;;18.41;62.02
70434;BME280;57876;47.792;12.960;2023-07-13T00:12:33;96808.22;;;18.44;61.87
70434;BME280;57876;47.792;12.960;2023-07-13T00:14:59;96805.13;;;18.45;62.01
70434;BME280;57876;47.792;12.960;2023-07-13T00:17:24;96783.19;;;18.33;62.00
70434;BME280;57876;47.792;12.960;2023-07-13T00:19:49;96786.72;;;18.34;62.07
70434;BME280;57876;47.792;12.960;2023-07-13T00:22:14;96798.84;;;18.45;61.83
70434;BME280;57876;47.792;12.960;2023-07-13T00:24:38;96798.72;;;18.41;61.92
70434;BME280;57876;47.792;12.960;2023-07-13T00:27:05;96801.13;;;18.43;61.97
70434;BME280;57876;47.792;12.960;2023-07-13T00:29:30;96804.31;;;18.45;61.88
70434;BME280;57876;47.792;12.960;2023-07-13T00:31:54;96790.16;;;18.43;61.99
70434;BME280;57876;47.792;12.960;2023-07-13T00:34:19;96795.00;;;18.46;62.13
70434;BME280;57876;47.792;12.960;2023-07-13T00:36:43;96791.78;;;18.44;61.80
70434;BME280;57876;47.792;12.960;2023-07-13T00:39:07;96791.00;;;18.43;61.81
70434;BME280;57876;47.792;12.960;2023-07-13T00:41:32;96776.72;;;18.38;61.91
70434;BME280;57876;47.792;12.960;2023-07-13T00:43:56;96778.88;;;18.44;61.97
70434;BME280;57876;47.792;12.960;2023-07-13T00:46:24;96779.34;;;18.46;61.95
70434;BME280;57876;47.792;12.960;2023-07-13T00:48:50;96743.97;;;18.41;61.86
70434;BME280;57876;47.792;12.960;2023-07-13T00:51:19;96751.50;;;18.44;61.93
70434;BME280;57876;47.792;12.960;2023-07-13T00:53:44;96734.47;;;18.39;61.99
70434;BME280;57876;47.792;12.960;2023-07-13T00:56:09;96732.22;;;18.41;62.02
70434;BME280;57876;47.792;12.960;2023-07-13T00:58:33;96732.34;;;18.44;62.02
70434;BME280;57876;47.792;12.960;2023-07-13T01:00:59;96737.69;;;18.41;61.98
70434;BME280;57876;47.792;12.960;2023-07-13T01:03:23;96754.25;;;18.44;61.76
70434;BME280;57876;47.792;12.960;2023-07-13T01:05:49;96742.81;;;18.42;61.90
70434;BME280;57876;47.792;12.960;2023-07-13T01:08:14;96727.94;;;18.31;61.88
70434;BME280;57876;47.792;12.960;2023-07-13T01:10:38;96735.41;;;18.43;61.86
70434;BME280;57876;47.792;12.960;2023-07-13T01:13:03;96736.91;;;18.40;61.90
70434;BME280;57876;47.792;12.960;2023-07-13T01:15:45;96745.91;;;18.41;62.01
70434;BME280;57876;47.792;12.960;2023-07-13T01:18:13;96765.19;;;18.44;62.04
70434;BME280;57876;47.792;12.960;2023-07-13T01:20:39;96743.16;;;18.41;61.92
70434;BME280;57876;47.792;12.960;2023-07-13T01:23:06;96767.03;;;18.40;61.92
70434;BME280;57876;47.792;12.960;2023-07-13T01:25:31;96743.16;;;18.41;61.92
70434;BME280;57876;47.792;12.960;2023-07-13T01:27:56;96750.22;;;18.42;61.91
70434;BME280;57876;47.792;12.960;2023-07-13T01:30:20;96750.22;;;18.42;61.84
70434;BME280;57876;47.792;12.960;2023-07-13T01:32:44;96740.88;;;18.43;62.05
70434;BME280;57876;47.792;12.960;2023-07-13T01:35:09;96737.34;;;18.42;61.69
70434;BME280;57876;47.792;12.960;2023-07-13T01:37:33;96732.53;;;18.39;62.02
70434;BME280;57876;47.792;12.960;2023-07-13T01:40:00;96723.53;;;18.39;61.94
70434;BME280;57876;47.792;12.960;2023-07-13T01:42:24;96724.13;;;18.44;61.92
70434;BME280;57876;47.792;12.960;2023-07-13T01:44:49;96715.53;;;18.34;61.77
70434;BME280;57876;47.792;12.960;2023-07-13T01:47:13;96718.84;;;18.39;61.95
70434;BME280;57876;47.792;12.960;2023-07-13T01:49:37;96715.63;;;18.37;62.02
70434;BME280;57876;47.792;12.960;2023-07-13T01:52:02;96725.13;;;18.40;62.05
70434;BME280;57876;47.792;12.960;2023-07-13T01:54:26;96731.19;;;18.45;61.95
70434;BME280;57876;47.792;12.960;2023-07-13T01:56:51;96714.16;;;18.40;62.23
70434;BME280;57876;47.792;12.960;2023-07-13T01:59:15;96719.31;;;18.41;62.04
70434;BME280;57876;47.792;12.960;2023-07-13T02:01:40;96724.13;;;18.44;62.15
70434;BME280;57876;47.792;12.960;2023-07-13T02:04:05;96718.53;;;18.41;61.87
70434;BME280;57876;47.792;12.960;2023-07-13T02:06:29;96715.78;;;18.41;61.70
70434;BME280;57876;47.792;12.960;2023-07-13T02:08:53;96709.63;;;18.44;61.84
70434;BME280;57876;47.792;12.960;2023-07-13T02:11:18;96709.16;;;18.42;62.01
70434;BME280;57876;47.792;12.960;2023-07-13T02:13:42;96698.41;;;18.37;62.03
70434;BME280;57876;47.792;12.960;2023-07-13T02:16:07;96700.03;;;18.38;61.88
70434;BME280;57876;47.792;12.960;2023-07-13T02:18:31;96699.34;;;18.41;62.16
70434;BME280;57876;47.792;12.960;2023-07-13T02:20:56;96693.09;;;18.40;61.89
70434;BME280;57876;47.792;12.960;2023-07-13T02:23:20;96701.75;;;18.42;62.04
70434;BME280;57876;47.792;12.960;2023-07-13T02:25:45;96695.34;;;18.38;61.91
70434;BME280;57876;47.792;12.960;2023-07-13T02:28:09;96710.31;;;18.41;61.98
70434;BME280;57876;47.792;12.960;2023-07-13T02:30:34;96721.25;;;18.41;61.88
70434;BME280;57876;47.792;12.960;2023-07-13T02:32:59;96722.38;;;18.40;62.01
70434;BME280;57876;47.792;12.960;2023-07-13T02:35:23;96725.47;;;18.38;61.91
70434;BME280;57876;47.792;12.960;2023-07-13T02:37:48;96729.00;;;18.39;62.07
70434;BME280;57876;47.792;12.960;2023-07-13T02:40:12;96736.06;;;18.40;61.90
70434;BME280;57876;47.792;12.960;2023-07-13T02:42:37;96739.16;;;18.38;61.99
70434;BME280;57876;47.792;12.960;2023-07-13T02:45:01;96740.28;;;18.37;62.26
70434;BME280;57876;47.792;12.960;2023-07-13T02:47:26;96754.56;;;18.43;62.02
70434;BME280;57876;47.792;12.960;2023-07-13T02:49:50;96758.81;;;18.40;61.81
70434;BME280;57876;47.792;12.960;2023-07-13T02:52:15;96743.16;;;18.41;62.02
70434;BME280;57876;47.792;12.960;2023-07-13T02:54:39;96737.00;;;18.44;61.90
70434;BME280;57876;47.792;12.960;2023-07-13T02:57:04;96743.97;;;18.41;62.05
70434;BME280;57876;47.792;12.960;2023-07-13T02:59:28;96758.81;;;18.40;61.69
70434;BME280;57876;47.792;12.960;2023-07-13T03:01:52;96761.19;;;18.42;62.14
70434;BME280;57876;47.792;12.960;2023-07-13T03:04:17;96765.06;;;18.41;62.08
70434;BME280;57876;47.792;12.960;2023-07-13T03:06:43;96750.91;;;18.39;61.98
70434;BME280;57876;47.792;12.960;2023-07-13T03:09:07;96757.97;;;18.40;61.92
70434;BME280;57876;47.792;12.960;2023-07-13T03:11:32;96765.53;;;18.43;62.02
70434;BME280;57876;47.792;12.960;2023-07-13T03:13:57;96760.28;;;18.38;62.00
70434;BME280;57876;47.792;12.960;2023-07-13T03:16:22;96747.69;;;18.37;61.93
70434;BME280;57876;47.792;12.960;2023-07-13T03:18:47;96769.09;;;18.43;62.02
70434;BME280;57876;47.792;12.960;2023-07-13T03:21:11;96771.34;;;18.41;62.07
70434;BME280;57876;47.792;12.960;2023-07-13T03:23:36;96772.81;;;18.39;61.92
70434;BME280;57876;47.792;12.960;2023-07-13T03:26:03;96776.81;;;18.41;62.14
70434;BME280;57876;47.792;12.960;2023-07-13T03:28:28;96778.63;;;18.37;61.86
70434;BME280;57876;47.792;12.960;2023-07-13T03:31:02;96783.78;;;18.39;62.23
70434;BME280;57876;47.792;12.960;2023-07-13T03:33:27;96777.09;;;18.27;62.00
70434;BME280;57876;47.792;12.960;2023-07-13T03:35:51;96788.09;;;18.40;61.91
70434;BME280;57876;47.792;12.960;2023-07-13T03:38:16;96784.09;;;18.37;61.87
70434;BME280;57876;47.792;12.960;2023-07-13T03:40:40;96790.03;;;18.39;61.96
70434;BME280;57876;47.792;12.960;2023-07-13T03:43:04;96792.31;;;18.37;61.99
70434;BME280;57876;47.792;12.960;2023-07-13T03:45:29;96798.25;;;18.39;62.01
70434;BME280;57876;47.792;12.960;2023-07-13T03:47:53;96796.31;;;18.40;62.05
70434;BME280;57876;47.792;12.960;2023-07-13T03:50:18;96805.00;;;18.42;62.06
70434;BME280;57876;47.792;12.960;2023-07-13T03:52:42;96801.00;;;18.39;62.04
70434;BME280;57876;47.792;12.960;2023-07-13T03:55:07;96798.63;;;18.38;62.10
70434;BME280;57876;47.792;12.960;2023-07-13T03:57:31;96802.28;;;18.42;61.92
70434;BME280;57876;47.792;12.960;2023-07-13T03:59:56;96790.03;;;18.39;62.03
70434;BME280;57876;47.792;12.960;2023-07-13T04:02:20;96787.66;;;18.38;61.92
70434;BME280;57876;47.792;12.960;2023-07-13T04:04:44;96788.94;;;18.40;62.01
70434;BME280;57876;47.792;12.960;2023-07-13T04:07:09;96783.78;;;18.39;61.89
70434;BME280;57876;47.792;12.960;2023-07-13T04:09:34;96777.34;;;18.35;61.89
70434;BME280;57876;47.792;12.960;2023-07-13T04:11:58;96772.81;;;18.39;62.07
70434;BME280;57876;47.792;12.960;2023-07-13T04:14:23;96765.28;;;18.36;61.88
70434;BME280;57876;47.792;12.960;2023-07-13T04:16:47;96772.81;;;18.39;62.09
70434;BME280;57876;47.792;12.960;2023-07-13T04:19:13;96760.28;;;18.38;62.08
70434;BME280;57876;47.792;12.960;2023-07-13T04:21:37;96774.88;;;18.42;62.01
70434;BME280;57876;47.792;12.960;2023-07-13T04:24:03;96772.94;;;18.42;62.06
70434;BME280;57876;47.792;12.960;2023-07-13T04:26:28;96771.22;;;18.38;61.88
70434;BME280;57876;47.792;12.960;2023-07-13T04:28:52;96772.03;;;18.38;62.08
70434;BME280;57876;47.792;12.960;2023-07-13T04:31:17;96773.50;;;18.36;61.84
70434;BME280;57876;47.792;12.960;2023-07-13T04:33:42;96772.56;;;18.32;61.98
70434;BME280;57876;47.792;12.960;2023-07-13T04:36:06;96771.88;;;18.35;61.87
70434;BME280;57876;47.792;12.960;2023-07-13T04:38:33;96786.63;;;18.42;62.29
70434;BME280;57876;47.792;12.960;2023-07-13T04:41:02;96787.66;;;18.38;62.01
70434;BME280;57876;47.792;12.960;2023-07-13T04:43:29;96791.31;;;18.42;61.91
70434;BME280;57876;47.792;12.960;2023-07-13T04:45:53;96801.13;;;18.43;62.13
70434;BME280;57876;47.792;12.960;2023-07-13T04:48:18;96797.59;;;18.42;62.08
70434;BME280;57876;47.792;12.960;2023-07-13T04:50:43;96798.25;;;18.39;61.93
70434;BME280;57876;47.792;12.960;2023-07-13T04:53:07;96781.56;;;18.32;62.05
70434;BME280;57876;47.792;12.960;2023-07-13T04:55:32;96770.50;;;18.29;62.00
70434;BME280;57876;47.792;12.960;2023-07-13T04:57:57;96793.25;;;18.41;61.91
70434;BME280;57876;47.792;12.960;2023-07-13T05:00:22;96796.78;;;18.42;62.00
70434;BME280;57876;47.792;12.960;2023-07-13T05:02:47;96795.53;;;18.39;62.08
70434;BME280;57876;47.792;12.960;2023-07-13T05:05:11;96785.31;;;18.27;62.05
70434;BME280;57876;47.792;12.960;2023-07-13T05:07:36;96801.34;;;18.38;61.94
70434;BME280;57876;47.792;12.960;2023-07-13T05:10:00;96820.28;;;18.43;61.97
70434;BME280;57876;47.792;12.960;2023-07-13T05:12:25;96822.13;;;18.39;61.95
70434;BME280;57876;47.792;12.960;2023-07-13T05:14:50;96826.13;;;18.41;62.00
70434;BME280;57876;47.792;12.960;2023-07-13T05:17:14;96830.81;;;18.41;61.98
70434;BME280;57876;47.792;12.960;2023-07-13T05:19:38;96844.13;;;18.42;61.93
70434;BME280;57876;47.792;12.960;2023-07-13T05:22:03;96854.28;;;18.42;61.96
70434;BME280;57876;47.792;12.960;2023-07-13T05:24:28;96839.34;;;18.39;61.99
70434;BME280;57876;47.792;12.960;2023-07-13T05:26:52;96835.31;;;18.37;61.96
70434;BME280;57876;47.792;12.960;2023-07-13T05:29:17;96842.06;;;18.39;62.00
70434;BME280;57876;47.792;12.960;2023-07-13T05:31:41;96849.63;;;18.42;61.93
70434;BME280;57876;47.792;12.960;2023-07-13T05:34:06;96849.97;;;18.41;61.97
70434;BME280;57876;47.792;12.960;2023-07-13T05:36:30;96841.00;;;18.32;61.87
70434;BME280;57876;47.792;12.960;2023-07-13T05:38:55;96861.72;;;18.41;61.90
70434;BME280;57876;47.792;12.960;2023-07-13T05:41:19;96865.25;;;18.42;61.91
70434;BME280;57876;47.792;12.960;2023-07-13T05:43:43;96858.84;;;18.38;61.96
70434;BME280;57876;47.792;12.960;2023-07-13T05:46:08;96865.59;;;18.40;61.97
70434;BME280;57876;47.792;12.960;2023-07-13T05:48:32;96852.56;;;18.37;61.97
70434;BME280;57876;47.792;12.960;2023-07-13T05:50:56;96859.31;;;18.40;61.91
70434;BME280;57876;47.792;12.960;2023-07-13T05:53:21;96844.41;;;18.29;62.01
70434;BME280;57876;47.792;12.960;2023-07-13T05:55:47;96852.44;;;18.34;61.97
70434;BME280;57876;47.792;12.960;2023-07-13T05:58:11;96871.53;;;18.42;62.07
70434;BME280;57876;47.792;12.960;2023-07-13T06:00:36;96862.09;;;18.31;62.11
70434;BME280;57876;47.792;12.960;2023-07-13T06:03:00;96890.38;;;18.44;61.99
70434;BME280;57876;47.792;12.960;2023-07-13T06:05:25;96887.16;;;18.42;61.97
70434;BME280;57876;47.792;12.960;2023-07-13T06:07:50;96870.19;;;18.27;62.09
70434;BME280;57876;47.792;12.960;2023-07-13T06:10:14;96882.16;;;18.44;62.07
70434;BME280;57876;47.792;12.960;2023-07-13T06:12:38;96894.22;;;18.43;61.94
70434;BME280;57876;47.792;12.960;2023-07-13T06:15:03;96879.28;;;18.40;61.97
70434;BME280;57876;47.792;12.960;2023-07-13T06:17:28;96887.03;;;18.38;62.02
70434;BME280;57876;47.792;12.960;2023-07-13T06:19:52;96889.44;;;18.40;62.01
70434;BME280;57876;47.792;12.960;2023-07-13T06:22:16;96883.03;;;18.36;61.90
70434;BME280;57876;47.792;12.960;2023-07-13T06:24:41;96888.16;;;18.37;62.01
70434;BME280;57876;47.792;12.960;2023-07-13T06:27:05;96891.91;;;18.33;61.90
70434;BME280;57876;47.792;12.960;2023-07-13T06:29:30;96893.50;;;18.34;61.99
70434;BME280;57876;47.792;12.960;2023-07-13T06:31:55;96903.47;;;18.38;62.07
70434;BME280;57876;47.792;12.960;2023-07-13T06:34:20;96907.00;;;18.39;62.01
70434;BME280;57876;47.792;12.960;2023-07-13T06:36:44;96913.28;;;18.39;62.00
70434;BME280;57876;47.792;12.960;2023-07-13T06:39:08;96916.81;;;18.40;62.10
70434;BME280;57876;47.792;12.960;2023-07-13T06:41:33;96910.25;;;18.32;61.98
70434;BME280;57876;47.792;12.960;2023-07-13T06:43:58;96914.53;;;18.42;62.00
70434;BME280;57876;47.792;12.960;2023-07-13T06:46:23;96923.91;;;18.41;62.08
70434;BME280;57876;47.792;12.960;2023-07-13T06:48:47;96927.09;;;18.43;61.98
70434;BME280;57876;47.792;12.960;2023-07-13T06:51:12;96930.66;;;18.43;61.95
70434;BME280;57876;47.792;12.960;2023-07-13T06:53:36;96916.38;;;18.38;62.12
70434;BME280;57876;47.792;12.960;2023-07-13T06:56:01;96914.75;;;18.37;62.01
70434;BME280;57876;47.792;12.960;2023-07-13T06:58:25;96917.97;;;18.39;62.15
70434;BME280;57876;47.792;12.960;2023-07-13T07:00:51;96912.78;;;18.37;62.19
70434;BME280;57876;47.792;12.960;2023-07-13T07:03:16;96916.13;;;18.43;62.21
70434;BME280;57876;47.792;12.960;2023-07-13T07:05:40;96917.63;;;18.40;62.04
70434;BME280;57876;47.792;12.960;2023-07-13T07:08:05;96919.53;;;18.40;62.00
70434;BME280;57876;47.792;12.960;2023-07-13T07:10:30;96919.72;;;18.43;62.10
70434;BME280;57876;47.792;12.960;2023-07-13T07:12:54;96913.63;;;18.38;61.99
70434;BME280;57876;47.792;12.960;2023-07-13T07:15:19;96903.31;;;18.35;61.86
70434;BME280;57876;47.792;12.960;2023-07-13T07:17:43;96922.44;;;18.43;61.95
70434;BME280;57876;47.792;12.960;2023-07-13T07:20:08;96910.88;;;18.38;62.02
70434;BME280;57876;47.792;12.960;2023-07-13T07:22:33;96912.00;;;18.37;62.09
70434;BME280;57876;47.792;12.960;2023-07-13T07:24:58;96922.28;;;18.40;61.97
70434;BME280;57876;47.792;12.960;2023-07-13T07:27:22;96928.72;;;18.44;62.23
70434;BME280;57876;47.792;12.960;2023-07-13T07:29:47;96923.44;;;18.39;61.98
70434;BME280;57876;47.792;12.960;2023-07-13T07:32:11;96923.13;;;18.40;62.07
70434;BME280;57876;47.792;12.960;2023-07-13T07:34:36;96927.91;;;18.43;62.16
70434;BME280;57876;47.792;12.960;2023-07-13T07:37:01;96926.78;;;18.44;62.14
70434;BME280;57876;47.792;12.960;2023-07-13T07:39:26;96928.59;;;18.40;62.16
70434;BME280;57876;47.792;12.960;2023-07-13T07:41:50;96932.56;;;18.43;62.33
70434;BME280;57876;47.792;12.960;2023-07-13T07:44:15;96934.06;;;18.40;62.08
70434;BME280;57876;47.792;12.960;2023-07-13T07:46:39;96925.22;;;18.35;61.90
70434;BME280;57876;47.792;12.960;2023-07-13T07:49:04;96940.53;;;18.36;62.20
70434;BME280;57876;47.792;12.960;2023-07-13T07:51:29;96935.97;;;18.40;62.10
70434;BME280;57876;47.792;12.960;2023-07-13T07:53:53;96946.25;;;18.43;62.21
70434;BME280;57876;47.792;12.960;2023-07-13T07:56:18;96946.25;;;18.43;61.99
70434;BME280;57876;47.792;12.960;2023-07-13T07:58:42;96949.84;;;18.43;62.14
70434;BME280;57876;47.792;12.960;2023-07-13T08:01:07;96951.41;;;18.44;62.12
70434;BME280;57876;47.792;12.960;2023-07-13T08:03:32;96957.22;;;18.43;62.12
70434;BME280;57876;47.792;12.960;2023-07-13T08:05:57;96947.41;;;18.42;61.97
70434;BME280;57876;47.792;12.960;2023-07-13T08:08:21;96932.78;;;18.38;62.00
70434;BME280;57876;47.792;12.960;2023-07-13T08:10:46;96940.34;;;18.41;62.10
70434;BME280;57876;47.792;12.960;2023-07-13T08:13:10;96933.78;;;18.33;61.94
70434;BME280;57876;47.792;12.960;2023-07-13T08:15:34;96945.81;;;18.41;62.06
70434;BME280;57876;47.792;12.960;2023-07-13T08:18:00;96949.00;;;18.43;62.08
70434;BME280;57876;47.792;12.960;2023-07-13T08:20:24;96955.63;;;18.42;62.18
70434;BME280;57876;47.792;12.960;2023-07-13T08:22:49;96951.28;;;18.41;62.10
70434;BME280;57876;47.792;12.960;2023-07-13T08:25:13;96965.13;;;18.44;61.95
70434;BME280;57876;47.792;12.960;2023-07-13T08:27:38;96947.94;;;18.35;62.36
70434;BME280;57876;47.792;12.960;2023-07-13T08:30:02;96953.69;;;18.42;62.05
70434;BME280;57876;47.792;12.960;2023-07-13T08:32:27;96940.66;;;18.39;61.96
70434;BME280;57876;47.792;12.960;2023-07-13T08:34:52;96946.63;;;18.41;62.13
70434;BME280;57876;47.792;12.960;2023-07-13T08:37:17;96952.88;;;18.42;62.08
70434;BME280;57876;47.792;12.960;2023-07-13T08:39:41;96957.09;;;18.39;62.19
70434;BME280;57876;47.792;12.960;2023-07-13T08:42:49;96969.31;;;18.42;61.99
70434;BME280;57876;47.792;12.960;2023-07-13T08:45:23;96955.31;;;18.43;62.15
70434;BME280;57876;47.792;12.960;2023-07-13T08:47:54;96952.41;;;18.40;61.99
70434;BME280;57876;47.792;12.960;2023-07-13T08:50:25;96956.78;;;18.41;61.98
70434;BME280;57876;47.792;12.960;2023-07-13T08:52:51;96956.78;;;18.41;61.76
70434;BME280;57876;47.792;12.960;2023-07-13T08:55:18;96957.69;;;18.45;62.16
70434;BME280;57876;47.792;12.960;2023-07-13T08:57:49;96957.75;;;18.36;61.95
70434;BME280;57876;47.792;12.960;2023-07-13T09:00:17;96962.91;;;18.38;61.98
70434;BME280;57876;47.792;12.960;2023-07-13T09:02:59;96982.69;;;18.43;61.92
70434;BME280;57876;47.792;12.960;2023-07-13T09:05:33;96972.53;;;18.44;62.02
70434;BME280;57876;47.792;12.960;2023-07-13T09:16:13;96986.72;;;18.46;61.99
70434;BME280;57876;47.792;12.960;2023-07-13T09:18:42;96976.13;;;18.36;62.29
70434;BME280;57876;47.792;12.960;2023-07-13T09:21:31;96997.66;;;18.46;62.10
70434;BME280;57876;47.792;12.960;2023-07-13T09:24:24;96993.16;;;18.41;62.17
70434;BME280;57876;47.792;12.960;2023-07-13T09:26:44;96990.75;;;18.40;62.21
70434;BME280;57876;47.792;12.960;2023-07-13T09:29:14;97001.03;;;18.43;61.98
70434;BME280;57876;47.792;12.960;2023-07-13T09:31:42;96986.41;;;18.39;62.12
70434;BME280;57876;47.792;12.960;2023-07-13T09:34:11;96996.69;;;18.42;62.14
70434;BME280;57876;47.792;12.960;2023-07-13T09:36:36;97003.13;;;18.46;61.99
70434;BME280;57876;47.792;12.960;2023-07-13T09:39:18;97001.03;;;18.43;62.20
70434;BME280;57876;47.792;12.960;2023-07-13T09:42:17;97009.22;;;18.52;62.15
70434;BME280;57876;47.792;12.960;2023-07-13T09:47:19;97000.41;;;18.46;62.19
70434;BME280;57876;47.792;12.960;2023-07-13T09:49:47;96983.50;;;18.44;62.02
70434;BME280;57876;47.792;12.960;2023-07-13T09:52:15;96981.75;;;18.39;62.10
70434;BME280;57876;47.792;12.960;2023-07-13T09:54:44;96996.00;;;18.54;61.87
70434;BME280;57876;47.792;12.960;2023-07-13T09:57:14;96994.72;;;18.51;62.12
70434;BME280;57876;47.792;12.960;2023-07-13T09:59:45;96985.25;;;18.48;61.94
70434;BME280;57876;47.792;12.960;2023-07-13T10:02:35;96978.00;;;18.44;61.87
70434;BME280;57876;47.792;12.960;2023-07-13T10:05:04;96973.19;;;18.41;61.91
70434;BME280;57876;47.792;12.960;2023-07-13T10:07:31;96978.94;;;18.48;62.01
70434;BME280;57876;47.792;12.960;2023-07-13T10:10:01;96965.31;;;18.39;62.00
70434;BME280;57876;47.792;12.960;2023-07-13T10:12:28;96980.09;;;18.47;61.68
70434;BME280;57876;47.792;12.960;2023-07-13T10:14:55;96968.66;;;18.45;61.84
70434;BME280;57876;47.792;12.960;2023-07-13T10:17:26;96970.47;;;18.41;61.82
70434;BME280;57876;47.792;12.960;2023-07-13T10:19:54;96989.44;;;18.46;61.68
70434;BME280;57876;47.792;12.960;2023-07-13T10:22:24;97004.34;;;18.57;61.63
70434;BME280;57876;47.792;12.960;2023-07-13T10:24:51;96994.09;;;18.45;61.83
70434;BME280;57876;47.792;12.960;2023-07-13T10:27:18;96996.50;;;18.47;61.93
70434;BME280;57876;47.792;12.960;2023-07-13T10:29:47;96993.91;;;18.51;62.03
70434;BME280;57876;47.792;12.960;2023-07-13T10:32:13;96992.38;;;18.41;61.95
70434;BME280;57876;47.792;12.960;2023-07-13T10:34:38;97003.59;;;18.48;61.97
70434;BME280;57876;47.792;12.960;2023-07-13T10:37:05;97013.56;;;18.53;61.88
70434;BME280;57876;47.792;12.960;2023-07-13T10:39:30;97003.13;;;18.46;62.01
70434;BME280;57876;47.792;12.960;2023-07-13T10:42:04;97007.16;;;18.48;61.90
70434;BME280;57876;47.792;12.960;2023-07-13T10:44:31;97018.53;;;18.59;62.17
70434;BME280;57876;47.792;12.960;2023-07-13T10:47:13;97001.50;;;18.45;62.02
70434;BME280;57876;47.792;12.960;2023-07-13T10:49:39;97011.16;;;18.51;62.00
70434;BME280;57876;47.792;12.960;2023-07-13T10:52:05;97006.50;;;18.52;62.22
70434;BME280;57876;47.792;12.960;2023-07-13T10:54:34;97002.72;;;18.56;61.80
70434;BME280;57876;47.792;12.960;2023-07-13T10:59:33;97009.91;;;18.48;61.83
70434;BME280;57876;47.792;12.960;2023-07-13T11:02:09;97004.88;;;18.51;61.83
70434;BME280;57876;47.792;12.960;2023-07-13T11:04:46;97010.81;;;18.53;61.86
70434;BME280;57876;47.792;12.960;2023-07-13T11:07:23;96995.56;;;18.43;61.91
70434;BME280;57876;47.792;12.960;2023-07-13T11:09:53;97017.44;;;18.52;61.96
70434;BME280;57876;47.792;12.960;2023-07-13T11:23:07;97001.00;;;18.52;61.83
70434;BME280;57876;47.792;12.960;2023-07-13T11:25:35;97001.69;;;18.48;61.90
70434;BME280;57876;47.792;12.960;2023-07-13T11:33:23;97002.94;;;18.51;61.88
70434;BME280;57876;47.792;12.960;2023-07-13T11:36:17;97014.66;;;18.60;61.98
70434;BME280;57876;47.792;12.960;2023-07-13T11:39:13;97029.50;;;18.59;61.95
70434;BME280;57876;47.792;12.960;2023-07-13T11:42:05;97018.53;;;18.59;62.02
70434;BME280;57876;47.792;12.960;2023-07-13T11:44:32;97011.00;;;18.47;62.00
70434;BME280;57876;47.792;12.960;2023-07-13T11:47:00;97018.53;;;18.59;62.05
70434;BME280;57876;47.792;12.960;2023-07-13T11:49:29;97025.31;;;18.53;62.06
70434;BME280;57876;47.792;12.960;2023-07-13T11:51:57;97019.66;;;18.58;61.81
70434;BME280;57876;47.792;12.960;2023-07-13T11:56:52;97018.25;;;18.52;62.15
70434;BME280;57876;47.792;12.960;2023-07-13T11:59:17;97019.38;;;18.51;62.09
70434;BME280;57876;47.792;12.960;2023-07-13T12:01:46;97014.09;;;18.46;61.88
70434;BME280;57876;47.792;12.960;2023-07-13T12:04:21;97024.50;;;18.53;61.85
70434;BME280;57876;47.792;12.960;2023-07-13T12:06:54;97037.72;;;18.59;61.94
70434;BME280;57876;47.792;12.960;2023-07-13T12:09:19;97029.00;;;18.57;61.64
70434;BME280;57876;47.792;12.960;2023-07-13T12:11:46;97028.88;;;18.54;61.87
70434;BME280;57876;47.792;12.960;2023-07-13T12:14:16;97025.31;;;18.53;61.82
70434;BME280;57876;47.792;12.960;2023-07-13T12:16:42;97013.28;;;18.45;61.74
70434;BME280;57876;47.792;12.960;2023-07-13T12:19:16;97028.06;;;18.53;62.06
70434;BME280;57876;47.792;12.960;2023-07-13T12:21:41;97003.78;;;18.43;61.85
70434;BME280;57876;47.792;12.960;2023-07-13T12:24:17;97021.16;;;18.47;62.17
70434;BME280;57876;47.792;12.960;2023-07-13T12:26:42;97021.91;;;18.56;61.98
70434;BME280;57876;47.792;12.960;2023-07-13T12:29:07;97038.16;;;18.61;61.71
70434;BME280;57876;47.792;12.960;2023-07-13T12:34:07;97034.63;;;18.61;61.91
70434;BME280;57876;47.792;12.960;2023-07-13T12:36:34;97026.28;;;18.57;61.87
70434;BME280;57876;47.792;12.960;2023-07-13T12:39:25;97029.13;;;18.61;61.98
70434;BME280;57876;47.792;12.960;2023-07-13T12:41:53;97022.06;;;18.60;61.85
70434;BME280;57876;47.792;12.960;2023-07-13T12:44:30;97011.16;;;18.51;61.78
70434;BME280;57876;47.792;12.960;2023-07-13T12:47:09;97002.00;;;18.47;61.80
70434;BME280;57876;47.792;12.960;2023-07-13T12:49:41;97005.69;;;18.51;61.89
70434;BME280;57876;47.792;12.960;2023-07-13T12:52:15;97001.94;;;18.56;61.92
70434;BME280;57876;47.792;12.960;2023-07-13T12:54:40;97020.25;;;18.64;61.74
70434;BME280;57876;47.792;12.960;2023-07-13T12:57:12;97001.81;;;18.52;61.85
70434;BME280;57876;47.792;12.960;2023-07-13T12:59:43;96990.19;;;18.55;61.67
70434;BME280;57876;47.792;12.960;2023-07-13T13:02:37;96988.31;;;18.47;61.80
70434;BME280;57876;47.792;12.960;2023-07-13T13:05:02;96983.97;;;18.46;61.96
70434;BME280;57876;47.792;12.960;2023-07-13T13:07:30;96994.06;;;18.54;61.66
70434;BME280;57876;47.792;12.960;2023-07-13T13:10:04;96986.97;;;18.53;61.69
70434;BME280;57876;47.792;12.960;2023-07-13T13:12:35;96983.13;;;18.54;61.87
70434;BME280;57876;47.792;12.960;2023-07-13T13:14:59;96983.44;;;18.53;61.96
70434;BME280;57876;47.792;12.960;2023-07-13T13:17:29;96988.59;;;18.54;61.70
70434;BME280;57876;47.792;12.960;2023-07-13T13:19:58;96991.13;;;18.59;61.82
70434;BME280;57876;47.792;12.960;2023-07-13T13:22:23;96975.22;;;18.53;61.76